LLIB/RPN METAR and TAF weather

Enter ICAO airport designator
Station Type Date Time Source
LLIB METAR 2022/06/28 08:50 UTC NOAA

LLIB 280850Z AUTO 15007KT 110V210 9999 FEW040 29/18 Q1008


Station Type Date Time Source
LLIB Decoded METAR 2022/06/28 08:50 UTC NOAA

Galilee / Pina, Israel (LLIB) 32-58-48N 035-34-12E
Jun 28, 2022 - 04:50 AM EDT / 2022.06.28 0850 UTC
Wind: from the SSE (150 degrees) at 8 MPH (7 KT) (direction variable):0
Visibility: greater than 7 mile(s):0
Sky conditions: mostly clear
Temperature: 84 F (29 C)
Dew Point: 64 F (18 C)
Relative Humidity: 51%
Pressure (altimeter): 29.77 in. Hg (1008 hPa)
ob: LLIB 280850Z AUTO 15007KT 110V210 9999 FEW040 29/18 Q1008
cycle: 9

Station Type Date Time Source
LLIB TAF 2022/06/28 06:09 UTC NOAA

TAF TAF LLIB 280508Z 2806/2906 VRB04KT CAVOK
BECMG 2807/2809 30009KT
BECMG 2818/2820 VRB04KT TX29/2812Z TN27/2904Z

Example: see airport list